sensor_id;sensor_type;location;lat;lon;timestamp;P1;durP1;ratioP1;P2;durP2;ratioP2
13797;SDS011;6970;51.340;3.240;2024-03-02T00:01:15;3.40;;;1.10;;
13797;SDS011;6970;51.340;3.240;2024-03-02T00:06:13;4.47;;;1.20;;
13797;SDS011;6970;51.340;3.240;2024-03-02T00:08:43;4.00;;;1.10;;
13797;SDS011;6970;51.340;3.240;2024-03-02T00:13:48;4.82;;;1.23;;
13797;SDS011;6970;51.340;3.240;2024-03-02T00:16:16;3.60;;;1.13;;
13797;SDS011;6970;51.340;3.240;2024-03-02T00:18:45;3.80;;;1.10;;
13797;SDS011;6970;51.340;3.240;2024-03-02T00:21:14;3.00;;;1.08;;
13797;SDS011;6970;51.340;3.240;2024-03-02T00:23:44;4.07;;;1.35;;
13797;SDS011;6970;51.340;3.240;2024-03-02T00:26:14;3.42;;;1.00;;
13797;SDS011;6970;51.340;3.240;2024-03-02T00:28:46;3.63;;;1.20;;
13797;SDS011;6970;51.340;3.240;2024-03-02T00:31:15;3.92;;;1.10;;
13797;SDS011;6970;51.340;3.240;2024-03-02T00:33:47;3.92;;;1.05;;
13797;SDS011;6970;51.340;3.240;2024-03-02T00:36:22;4.57;;;1.20;;
13797;SDS011;6970;51.340;3.240;2024-03-02T00:38:54;4.40;;;1.20;;
13797;SDS011;6970;51.340;3.240;2024-03-02T00:41:29;4.30;;;1.30;;
13797;SDS011;6970;51.340;3.240;2024-03-02T00:46:29;4.82;;;1.10;;
13797;SDS011;6970;51.340;3.240;2024-03-02T00:49:04;5.38;;;1.50;;
13797;SDS011;6970;51.340;3.240;2024-03-02T00:51:39;4.85;;;1.45;;
13797;SDS011;6970;51.340;3.240;2024-03-02T00:56:41;4.35;;;1.42;;
13797;SDS011;6970;51.340;3.240;2024-03-02T00:59:09;4.78;;;1.40;;
13797;SDS011;6970;51.340;3.240;2024-03-02T01:04:11;3.85;;;1.33;;
13797;SDS011;6970;51.340;3.240;2024-03-02T01:06:42;6.10;;;1.20;;
13797;SDS011;6970;51.340;3.240;2024-03-02T01:09:10;4.57;;;1.30;;
13797;SDS011;6970;51.340;3.240;2024-03-02T01:11:39;6.07;;;1.30;;
13797;SDS011;6970;51.340;3.240;2024-03-02T01:14:07;5.68;;;1.13;;
13797;SDS011;6970;51.340;3.240;2024-03-02T01:16:34;5.68;;;1.23;;
13797;SDS011;6970;51.340;3.240;2024-03-02T01:19:01;4.03;;;1.25;;
13797;SDS011;6970;51.340;3.240;2024-03-02T01:21:30;6.43;;;1.60;;
13797;SDS011;6970;51.340;3.240;2024-03-02T01:23:58;4.35;;;1.25;;
13797;SDS011;6970;51.340;3.240;2024-03-02T01:26:32;4.40;;;1.27;;
13797;SDS011;6970;51.340;3.240;2024-03-02T01:29:05;5.15;;;1.25;;
13797;SDS011;6970;51.340;3.240;2024-03-02T01:31:35;3.97;;;1.10;;
13797;SDS011;6970;51.340;3.240;2024-03-02T01:34:05;4.00;;;1.00;;
13797;SDS011;6970;51.340;3.240;2024-03-02T01:36:35;4.47;;;1.25;;
13797;SDS011;6970;51.340;3.240;2024-03-02T01:39:02;5.80;;;1.67;;
13797;SDS011;6970;51.340;3.240;2024-03-02T01:41:30;7.05;;;1.30;;
13797;SDS011;6970;51.340;3.240;2024-03-02T01:44:00;4.72;;;1.30;;
13797;SDS011;6970;51.340;3.240;2024-03-02T01:46:29;4.40;;;1.48;;
13797;SDS011;6970;51.340;3.240;2024-03-02T01:48:59;5.88;;;1.30;;
13797;SDS011;6970;51.340;3.240;2024-03-02T01:51:29;4.10;;;1.13;;
13797;SDS011;6970;51.340;3.240;2024-03-02T01:53:58;5.88;;;1.38;;
13797;SDS011;6970;51.340;3.240;2024-03-02T01:56:26;4.55;;;1.05;;
13797;SDS011;6970;51.340;3.240;2024-03-02T01:58:53;5.32;;;1.25;;
13797;SDS011;6970;51.340;3.240;2024-03-02T02:01:22;5.25;;;1.10;;
13797;SDS011;6970;51.340;3.240;2024-03-02T02:03:52;3.58;;;1.02;;
13797;SDS011;6970;51.340;3.240;2024-03-02T02:06:19;4.68;;;1.10;;
13797;SDS011;6970;51.340;3.240;2024-03-02T02:11:19;3.42;;;1.05;;
13797;SDS011;6970;51.340;3.240;2024-03-02T02:21:22;5.93;;;1.52;;
13797;SDS011;6970;51.340;3.240;2024-03-02T02:23:53;7.00;;;1.27;;
13797;SDS011;6970;51.340;3.240;2024-03-02T02:26:22;3.60;;;1.50;;
13797;SDS011;6970;51.340;3.240;2024-03-02T02:28:49;4.30;;;1.35;;
13797;SDS011;6970;51.340;3.240;2024-03-02T02:31:18;3.53;;;1.10;;
13797;SDS011;6970;51.340;3.240;2024-03-02T02:33:47;4.32;;;1.20;;
13797;SDS011;6970;51.340;3.240;2024-03-02T02:36:26;5.07;;;1.40;;
13797;SDS011;6970;51.340;3.240;2024-03-02T02:38:55;4.13;;;1.20;;
13797;SDS011;6970;51.340;3.240;2024-03-02T02:43:53;6.90;;;1.10;;
13797;SDS011;6970;51.340;3.240;2024-03-02T02:46:26;5.70;;;1.30;;
13797;SDS011;6970;51.340;3.240;2024-03-02T02:48:56;3.50;;;1.15;;
13797;SDS011;6970;51.340;3.240;2024-03-02T02:51:23;4.35;;;1.35;;
13797;SDS011;6970;51.340;3.240;2024-03-02T02:56:22;4.85;;;1.48;;
13797;SDS011;6970;51.340;3.240;2024-03-02T02:58:49;4.15;;;1.10;;
13797;SDS011;6970;51.340;3.240;2024-03-02T03:01:19;4.18;;;1.10;;
13797;SDS011;6970;51.340;3.240;2024-03-02T03:03:47;6.93;;;1.55;;
13797;SDS011;6970;51.340;3.240;2024-03-02T03:06:14;6.03;;;1.70;;
13797;SDS011;6970;51.340;3.240;2024-03-02T03:08:41;5.70;;;1.40;;
13797;SDS011;6970;51.340;3.240;2024-03-02T03:11:09;5.88;;;1.50;;
13797;SDS011;6970;51.340;3.240;2024-03-02T03:13:38;5.55;;;1.52;;
13797;SDS011;6970;51.340;3.240;2024-03-02T03:16:12;6.18;;;1.60;;
13797;SDS011;6970;51.340;3.240;2024-03-02T03:21:09;5.18;;;1.70;;
13797;SDS011;6970;51.340;3.240;2024-03-02T03:23:36;6.70;;;1.90;;
13797;SDS011;6970;51.340;3.240;2024-03-02T03:26:06;6.40;;;1.73;;
13797;SDS011;6970;51.340;3.240;2024-03-02T03:31:03;5.85;;;1.90;;
13797;SDS011;6970;51.340;3.240;2024-03-02T03:33:31;4.88;;;1.85;;
13797;SDS011;6970;51.340;3.240;2024-03-02T03:35:59;6.30;;;2.00;;
13797;SDS011;6970;51.340;3.240;2024-03-02T03:38:26;5.30;;;1.80;;
13797;SDS011;6970;51.340;3.240;2024-03-02T03:40:56;7.82;;;1.85;;
13797;SDS011;6970;51.340;3.240;2024-03-02T03:43:25;10.65;;;2.13;;
13797;SDS011;6970;51.340;3.240;2024-03-02T03:45:52;8.30;;;2.03;;
13797;SDS011;6970;51.340;3.240;2024-03-02T03:50:53;5.50;;;1.63;;
13797;SDS011;6970;51.340;3.240;2024-03-02T03:53:20;6.65;;;1.90;;
13797;SDS011;6970;51.340;3.240;2024-03-02T03:55:49;6.07;;;2.05;;
13797;SDS011;6970;51.340;3.240;2024-03-02T03:58:22;7.70;;;2.00;;
13797;SDS011;6970;51.340;3.240;2024-03-02T04:00:50;6.18;;;2.47;;
13797;SDS011;6970;51.340;3.240;2024-03-02T04:03:20;7.78;;;2.13;;
13797;SDS011;6970;51.340;3.240;2024-03-02T04:08:17;6.60;;;2.28;;
13797;SDS011;6970;51.340;3.240;2024-03-02T04:10:45;7.63;;;2.40;;
13797;SDS011;6970;51.340;3.240;2024-03-02T04:13:14;7.20;;;2.67;;
13797;SDS011;6970;51.340;3.240;2024-03-02T04:15:42;7.85;;;2.70;;
13797;SDS011;6970;51.340;3.240;2024-03-02T04:18:09;7.63;;;2.67;;
13797;SDS011;6970;51.340;3.240;2024-03-02T04:20:38;7.72;;;2.63;;
13797;SDS011;6970;51.340;3.240;2024-03-02T04:23:08;9.00;;;3.40;;
13797;SDS011;6970;51.340;3.240;2024-03-02T04:28:06;5.75;;;2.30;;
13797;SDS011;6970;51.340;3.240;2024-03-02T04:30:36;8.20;;;2.88;;
13797;SDS011;6970;51.340;3.240;2024-03-02T04:33:03;6.03;;;2.58;;
13797;SDS011;6970;51.340;3.240;2024-03-02T04:35:33;7.55;;;2.45;;
13797;SDS011;6970;51.340;3.240;2024-03-02T04:38:00;7.25;;;2.60;;
13797;SDS011;6970;51.340;3.240;2024-03-02T04:42:59;6.88;;;2.50;;
13797;SDS011;6970;51.340;3.240;2024-03-02T04:45:29;9.43;;;2.47;;
13797;SDS011;6970;51.340;3.240;2024-03-02T04:47:56;8.30;;;3.28;;
13797;SDS011;6970;51.340;3.240;2024-03-02T04:50:24;7.13;;;3.10;;
13797;SDS011;6970;51.340;3.240;2024-03-02T04:52:55;8.02;;;2.50;;
13797;SDS011;6970;51.340;3.240;2024-03-02T04:55:23;8.48;;;3.22;;
13797;SDS011;6970;51.340;3.240;2024-03-02T04:58:11;7.60;;;2.75;;
13797;SDS011;6970;51.340;3.240;2024-03-02T05:00:38;8.73;;;2.78;;
13797;SDS011;6970;51.340;3.240;2024-03-02T05:03:06;7.75;;;2.15;;
13797;SDS011;6970;51.340;3.240;2024-03-02T05:08:04;6.63;;;2.28;;
13797;SDS011;6970;51.340;3.240;2024-03-02T05:10:32;5.97;;;2.15;;
13797;SDS011;6970;51.340;3.240;2024-03-02T05:13:01;5.93;;;2.38;;
13797;SDS011;6970;51.340;3.240;2024-03-02T05:15:32;8.88;;;2.70;;
13797;SDS011;6970;51.340;3.240;2024-03-02T05:20:33;6.65;;;2.22;;
13797;SDS011;6970;51.340;3.240;2024-03-02T05:23:01;7.35;;;2.22;;
13797;SDS011;6970;51.340;3.240;2024-03-02T05:25:28;7.63;;;2.38;;
13797;SDS011;6970;51.340;3.240;2024-03-02T05:27:55;7.57;;;2.30;;
13797;SDS011;6970;51.340;3.240;2024-03-02T05:30:25;4.90;;;1.90;;
13797;SDS011;6970;51.340;3.240;2024-03-02T05:32:55;4.47;;;1.63;;
13797;SDS011;6970;51.340;3.240;2024-03-02T05:37:53;7.10;;;1.95;;
13797;SDS011;6970;51.340;3.240;2024-03-02T05:40:21;5.68;;;1.83;;
13797;SDS011;6970;51.340;3.240;2024-03-02T05:42:49;7.90;;;2.03;;
13797;SDS011;6970;51.340;3.240;2024-03-02T05:45:16;6.32;;;2.03;;
13797;SDS011;6970;51.340;3.240;2024-03-02T05:47:47;7.43;;;2.00;;
13797;SDS011;6970;51.340;3.240;2024-03-02T05:55:19;5.63;;;1.85;;
13797;SDS011;6970;51.340;3.240;2024-03-02T05:57:52;7.70;;;2.03;;
13797;SDS011;6970;51.340;3.240;2024-03-02T06:00:38;5.07;;;1.95;;
13797;SDS011;6970;51.340;3.240;2024-03-02T06:03:06;6.80;;;2.30;;
13797;SDS011;6970;51.340;3.240;2024-03-02T06:10:34;6.60;;;1.70;;
13797;SDS011;6970;51.340;3.240;2024-03-02T06:13:03;6.35;;;1.95;;
13797;SDS011;6970;51.340;3.240;2024-03-02T06:15:31;5.63;;;1.63;;
13797;SDS011;6970;51.340;3.240;2024-03-02T06:17:58;6.93;;;2.20;;
13797;SDS011;6970;51.340;3.240;2024-03-02T06:20:25;5.75;;;1.70;;
13797;SDS011;6970;51.340;3.240;2024-03-02T06:22:55;8.07;;;2.00;;
13797;SDS011;6970;51.340;3.240;2024-03-02T06:27:55;9.43;;;1.80;;
13797;SDS011;6970;51.340;3.240;2024-03-02T06:30:22;5.75;;;1.75;;
13797;SDS011;6970;51.340;3.240;2024-03-02T06:32:50;5.15;;;1.60;;
13797;SDS011;6970;51.340;3.240;2024-03-02T06:35:18;8.00;;;2.63;;
13797;SDS011;6970;51.340;3.240;2024-03-02T06:37:49;6.38;;;1.75;;
13797;SDS011;6970;51.340;3.240;2024-03-02T06:40:18;8.40;;;2.40;;
13797;SDS011;6970;51.340;3.240;2024-03-02T06:45:15;5.95;;;1.80;;
13797;SDS011;6970;51.340;3.240;2024-03-02T06:50:13;7.03;;;1.88;;
13797;SDS011;6970;51.340;3.240;2024-03-02T06:52:40;8.80;;;2.03;;
13797;SDS011;6970;51.340;3.240;2024-03-02T06:55:11;9.10;;;1.88;;
13797;SDS011;6970;51.340;3.240;2024-03-02T06:57:39;11.30;;;3.33;;
13797;SDS011;6970;51.340;3.240;2024-03-02T07:00:06;7.07;;;1.80;;
13797;SDS011;6970;51.340;3.240;2024-03-02T07:05:10;7.55;;;2.03;;
13797;SDS011;6970;51.340;3.240;2024-03-02T07:07:40;9.77;;;1.67;;
13797;SDS011;6970;51.340;3.240;2024-03-02T07:10:10;5.90;;;1.50;;
13797;SDS011;6970;51.340;3.240;2024-03-02T07:12:40;6.90;;;1.58;;
13797;SDS011;6970;51.340;3.240;2024-03-02T07:15:13;8.13;;;2.08;;
13797;SDS011;6970;51.340;3.240;2024-03-02T07:20:32;8.10;;;1.58;;
13797;SDS011;6970;51.340;3.240;2024-03-02T07:23:02;7.47;;;1.83;;
13797;SDS011;6970;51.340;3.240;2024-03-02T07:25:31;5.38;;;1.40;;
13797;SDS011;6970;51.340;3.240;2024-03-02T07:28:02;8.77;;;1.40;;
13797;SDS011;6970;51.340;3.240;2024-03-02T07:33:04;9.60;;;1.98;;
13797;SDS011;6970;51.340;3.240;2024-03-02T07:35:34;8.93;;;1.30;;
13797;SDS011;6970;51.340;3.240;2024-03-02T07:40:31;9.43;;;1.73;;
13797;SDS011;6970;51.340;3.240;2024-03-02T07:42:59;6.78;;;1.30;;
13797;SDS011;6970;51.340;3.240;2024-03-02T07:45:26;7.10;;;1.40;;
13797;SDS011;6970;51.340;3.240;2024-03-02T07:47:54;7.10;;;1.52;;
13797;SDS011;6970;51.340;3.240;2024-03-02T07:50:21;5.90;;;1.40;;
13797;SDS011;6970;51.340;3.240;2024-03-02T07:52:49;6.97;;;1.60;;
13797;SDS011;6970;51.340;3.240;2024-03-02T07:55:19;6.38;;;1.45;;
13797;SDS011;6970;51.340;3.240;2024-03-02T07:57:46;6.40;;;1.40;;
13797;SDS011;6970;51.340;3.240;2024-03-02T08:00:14;6.93;;;1.48;;
13797;SDS011;6970;51.340;3.240;2024-03-02T08:02:42;6.72;;;1.63;;
13797;SDS011;6970;51.340;3.240;2024-03-02T08:05:09;8.68;;;1.63;;
13797;SDS011;6970;51.340;3.240;2024-03-02T08:07:38;5.53;;;1.50;;
13797;SDS011;6970;51.340;3.240;2024-03-02T08:10:05;5.78;;;1.63;;
13797;SDS011;6970;51.340;3.240;2024-03-02T08:12:35;6.82;;;1.85;;
13797;SDS011;6970;51.340;3.240;2024-03-02T08:15:02;5.80;;;1.40;;
13797;SDS011;6970;51.340;3.240;2024-03-02T08:17:30;7.00;;;1.40;;
13797;SDS011;6970;51.340;3.240;2024-03-02T08:20:03;9.05;;;1.50;;
13797;SDS011;6970;51.340;3.240;2024-03-02T08:22:31;9.32;;;1.80;;
13797;SDS011;6970;51.340;3.240;2024-03-02T08:24:58;7.55;;;1.60;;
13797;SDS011;6970;51.340;3.240;2024-03-02T08:27:28;7.30;;;1.52;;
13797;SDS011;6970;51.340;3.240;2024-03-02T08:29:58;6.80;;;1.60;;
13797;SDS011;6970;51.340;3.240;2024-03-02T08:34:55;6.07;;;1.42;;
13797;SDS011;6970;51.340;3.240;2024-03-02T08:37:22;9.27;;;1.83;;
13797;SDS011;6970;51.340;3.240;2024-03-02T08:39:50;6.93;;;1.60;;
13797;SDS011;6970;51.340;3.240;2024-03-02T08:42:17;7.95;;;1.73;;
13797;SDS011;6970;51.340;3.240;2024-03-02T08:44:45;7.25;;;1.50;;
13797;SDS011;6970;51.340;3.240;2024-03-02T08:47:12;6.10;;;1.92;;
13797;SDS011;6970;51.340;3.240;2024-03-02T08:49:41;6.60;;;1.77;;
13797;SDS011;6970;51.340;3.240;2024-03-02T08:52:11;7.53;;;1.48;;
13797;SDS011;6970;51.340;3.240;2024-03-02T08:54:41;8.48;;;1.92;;
13797;SDS011;6970;51.340;3.240;2024-03-02T08:57:10;9.13;;;2.00;;
13797;SDS011;6970;51.340;3.240;2024-03-02T08:59:37;7.53;;;1.70;;
13797;SDS011;6970;51.340;3.240;2024-03-02T09:02:05;9.82;;;2.15;;
13797;SDS011;6970;51.340;3.240;2024-03-02T09:04:32;8.52;;;1.50;;
13797;SDS011;6970;51.340;3.240;2024-03-02T09:07:01;7.35;;;1.98;;
13797;SDS011;6970;51.340;3.240;2024-03-02T09:09:28;8.25;;;1.88;;
13797;SDS011;6970;51.340;3.240;2024-03-02T09:11:58;7.35;;;2.13;;
13797;SDS011;6970;51.340;3.240;2024-03-02T09:14:25;9.32;;;1.67;;
13797;SDS011;6970;51.340;3.240;2024-03-02T09:16:55;10.32;;;2.20;;
13797;SDS011;6970;51.340;3.240;2024-03-02T09:19:25;7.72;;;1.65;;
13797;SDS011;6970;51.340;3.240;2024-03-02T09:21:52;8.80;;;1.95;;
13797;SDS011;6970;51.340;3.240;2024-03-02T09:24:22;10.35;;;1.98;;
13797;SDS011;6970;51.340;3.240;2024-03-02T09:26:50;8.88;;;1.63;;
13797;SDS011;6970;51.340;3.240;2024-03-02T09:29:18;8.43;;;1.90;;
13797;SDS011;6970;51.340;3.240;2024-03-02T09:31:53;8.30;;;1.90;;
13797;SDS011;6970;51.340;3.240;2024-03-02T09:34:22;9.95;;;1.30;;
13797;SDS011;6970;51.340;3.240;2024-03-02T09:36:50;7.78;;;1.23;;
13797;SDS011;6970;51.340;3.240;2024-03-02T09:39:18;9.50;;;1.65;;
13797;SDS011;6970;51.340;3.240;2024-03-02T09:41:47;7.82;;;1.63;;
13797;SDS011;6970;51.340;3.240;2024-03-02T09:44:15;8.25;;;1.65;;
13797;SDS011;6970;51.340;3.240;2024-03-02T09:46:43;10.43;;;1.20;;
13797;SDS011;6970;51.340;3.240;2024-03-02T09:49:11;8.75;;;1.40;;
13797;SDS011;6970;51.340;3.240;2024-03-02T09:51:38;10.15;;;1.83;;
13797;SDS011;6970;51.340;3.240;2024-03-02T09:54:07;6.75;;;1.40;;
13797;SDS011;6970;51.340;3.240;2024-03-02T09:56:47;13.32;;;1.55;;
13797;SDS011;6970;51.340;3.240;2024-03-02T09:59:18;8.45;;;1.58;;
13797;SDS011;6970;51.340;3.240;2024-03-02T10:01:59;7.10;;;1.77;;
13797;SDS011;6970;51.340;3.240;2024-03-02T10:04:36;9.93;;;1.70;;
13797;SDS011;6970;51.340;3.240;2024-03-02T10:09:47;12.18;;;2.03;;
13797;SDS011;6970;51.340;3.240;2024-03-02T10:12:17;7.63;;;1.50;;
13797;SDS011;6970;51.340;3.240;2024-03-02T10:14:46;6.40;;;1.70;;
13797;SDS011;6970;51.340;3.240;2024-03-02T10:17:17;7.93;;;1.73;;
13797;SDS011;6970;51.340;3.240;2024-03-02T10:19:44;9.68;;;1.60;;
13797;SDS011;6970;51.340;3.240;2024-03-02T10:22:14;6.57;;;1.35;;
13797;SDS011;6970;51.340;3.240;2024-03-02T10:24:44;9.40;;;1.90;;
13797;SDS011;6970;51.340;3.240;2024-03-02T10:27:26;9.05;;;1.60;;
13797;SDS011;6970;51.340;3.240;2024-03-02T10:29:56;7.85;;;1.35;;
13797;SDS011;6970;51.340;3.240;2024-03-02T10:32:25;11.63;;;1.50;;
13797;SDS011;6970;51.340;3.240;2024-03-02T10:34:53;11.00;;;1.48;;
13797;SDS011;6970;51.340;3.240;2024-03-02T10:37:24;7.30;;;1.50;;
13797;SDS011;6970;51.340;3.240;2024-03-02T10:39:54;10.68;;;1.90;;
13797;SDS011;6970;51.340;3.240;2024-03-02T10:42:24;7.28;;;1.80;;
13797;SDS011;6970;51.340;3.240;2024-03-02T10:44:53;8.13;;;1.70;;
13797;SDS011;6970;51.340;3.240;2024-03-02T10:47:21;8.48;;;1.60;;
13797;SDS011;6970;51.340;3.240;2024-03-02T10:49:52;9.13;;;1.80;;
13797;SDS011;6970;51.340;3.240;2024-03-02T10:54:50;10.70;;;1.60;;
13797;SDS011;6970;51.340;3.240;2024-03-02T10:57:21;8.07;;;1.67;;
13797;SDS011;6970;51.340;3.240;2024-03-02T10:59:59;7.13;;;1.60;;
13797;SDS011;6970;51.340;3.240;2024-03-02T11:02:36;10.35;;;2.00;;
13797;SDS011;6970;51.340;3.240;2024-03-02T11:05:06;8.25;;;1.70;;
13797;SDS011;6970;51.340;3.240;2024-03-02T11:07:38;6.90;;;1.52;;
13797;SDS011;6970;51.340;3.240;2024-03-02T11:10:07;11.38;;;2.90;;
13797;SDS011;6970;51.340;3.240;2024-03-02T11:12:38;11.85;;;2.63;;
13797;SDS011;6970;51.340;3.240;2024-03-02T11:15:14;6.78;;;1.50;;
13797;SDS011;6970;51.340;3.240;2024-03-02T11:17:45;7.07;;;1.35;;
13797;SDS011;6970;51.340;3.240;2024-03-02T11:20:14;8.13;;;2.15;;
13797;SDS011;6970;51.340;3.240;2024-03-02T11:25:25;8.57;;;1.50;;
13797;SDS011;6970;51.340;3.240;2024-03-02T11:33:06;6.32;;;1.30;;
13797;SDS011;6970;51.340;3.240;2024-03-02T11:35:42;9.07;;;2.08;;
13797;SDS011;6970;51.340;3.240;2024-03-02T11:38:14;7.00;;;1.40;;
13797;SDS011;6970;51.340;3.240;2024-03-02T11:43:11;7.45;;;1.42;;
13797;SDS011;6970;51.340;3.240;2024-03-02T11:50:48;5.47;;;1.52;;
13797;SDS011;6970;51.340;3.240;2024-03-02T11:58:22;10.93;;;1.70;;
13797;SDS011;6970;51.340;3.240;2024-03-02T12:00:52;7.97;;;1.67;;
13797;SDS011;6970;51.340;3.240;2024-03-02T12:03:23;7.97;;;1.55;;
13797;SDS011;6970;51.340;3.240;2024-03-02T12:08:27;6.85;;;1.30;;
13797;SDS011;6970;51.340;3.240;2024-03-02T12:16:06;9.63;;;1.33;;
13797;SDS011;6970;51.340;3.240;2024-03-02T12:18:33;6.68;;;1.40;;
13797;SDS011;6970;51.340;3.240;2024-03-02T12:21:00;8.75;;;1.83;;
13797;SDS011;6970;51.340;3.240;2024-03-02T12:23:32;8.23;;;2.15;;
13797;SDS011;6970;51.340;3.240;2024-03-02T12:28:31;8.43;;;1.63;;
13797;SDS011;6970;51.340;3.240;2024-03-02T12:31:00;10.93;;;2.45;;
13797;SDS011;6970;51.340;3.240;2024-03-02T12:33:27;7.32;;;1.90;;
13797;SDS011;6970;51.340;3.240;2024-03-02T12:35:56;10.15;;;1.60;;
13797;SDS011;6970;51.340;3.240;2024-03-02T12:38:25;8.45;;;1.70;;
13797;SDS011;6970;51.340;3.240;2024-03-02T12:43:29;9.30;;;1.63;;
13797;SDS011;6970;51.340;3.240;2024-03-02T12:45:58;9.32;;;1.60;;
13797;SDS011;6970;51.340;3.240;2024-03-02T12:48:27;8.00;;;1.80;;
13797;SDS011;6970;51.340;3.240;2024-03-02T12:50:58;6.68;;;1.33;;
13797;SDS011;6970;51.340;3.240;2024-03-02T12:53:25;7.90;;;1.50;;
13797;SDS011;6970;51.340;3.240;2024-03-02T12:55:54;7.25;;;1.42;;
13797;SDS011;6970;51.340;3.240;2024-03-02T13:01:08;8.90;;;1.45;;
13797;SDS011;6970;51.340;3.240;2024-03-02T13:03:42;8.75;;;1.40;;
13797;SDS011;6970;51.340;3.240;2024-03-02T13:08:41;8.27;;;1.73;;
13797;SDS011;6970;51.340;3.240;2024-03-02T13:11:12;7.30;;;1.50;;
13797;SDS011;6970;51.340;3.240;2024-03-02T13:13:41;8.63;;;1.77;;
13797;SDS011;6970;51.340;3.240;2024-03-02T13:16:09;7.50;;;1.65;;
13797;SDS011;6970;51.340;3.240;2024-03-02T13:18:38;6.20;;;1.40;;
13797;SDS011;6970;51.340;3.240;2024-03-02T13:21:06;7.53;;;1.33;;
13797;SDS011;6970;51.340;3.240;2024-03-02T13:23:35;7.43;;;1.45;;
13797;SDS011;6970;51.340;3.240;2024-03-02T13:28:35;7.40;;;1.55;;
13797;SDS011;6970;51.340;3.240;2024-03-02T13:31:03;5.95;;;1.42;;
13797;SDS011;6970;51.340;3.240;2024-03-02T13:36:01;8.10;;;1.98;;
13797;SDS011;6970;51.340;3.240;2024-03-02T13:38:32;8.13;;;2.75;;
13797;SDS011;6970;51.340;3.240;2024-03-02T13:40:59;9.30;;;1.80;;
13797;SDS011;6970;51.340;3.240;2024-03-02T13:43:29;11.27;;;2.78;;
13797;SDS011;6970;51.340;3.240;2024-03-02T13:46:03;8.82;;;2.00;;
13797;SDS011;6970;51.340;3.240;2024-03-02T13:48:34;6.50;;;2.00;;
13797;SDS011;6970;51.340;3.240;2024-03-02T13:51:04;6.35;;;1.48;;
13797;SDS011;6970;51.340;3.240;2024-03-02T13:56:04;8.43;;;1.80;;
13797;SDS011;6970;51.340;3.240;2024-03-02T13:58:33;8.27;;;1.90;;
13797;SDS011;6970;51.340;3.240;2024-03-02T14:01:04;6.60;;;1.50;;
13797;SDS011;6970;51.340;3.240;2024-03-02T14:03:35;8.85;;;1.80;;
13797;SDS011;6970;51.340;3.240;2024-03-02T14:06:04;8.05;;;1.88;;
13797;SDS011;6970;51.340;3.240;2024-03-02T14:08:34;8.63;;;1.70;;
13797;SDS011;6970;51.340;3.240;2024-03-02T14:11:02;9.80;;;1.80;;
13797;SDS011;6970;51.340;3.240;2024-03-02T14:13:29;9.65;;;1.45;;
13797;SDS011;6970;51.340;3.240;2024-03-02T14:15:58;6.85;;;1.80;;
13797;SDS011;6970;51.340;3.240;2024-03-02T14:18:29;8.13;;;1.65;;
13797;SDS011;6970;51.340;3.240;2024-03-02T14:21:06;8.25;;;2.03;;
13797;SDS011;6970;51.340;3.240;2024-03-02T14:23:44;6.68;;;1.75;;
13797;SDS011;6970;51.340;3.240;2024-03-02T14:26:13;7.03;;;1.80;;
13797;SDS011;6970;51.340;3.240;2024-03-02T14:33:48;7.53;;;1.58;;
13797;SDS011;6970;51.340;3.240;2024-03-02T14:38:46;4.82;;;1.33;;
13797;SDS011;6970;51.340;3.240;2024-03-02T14:41:14;8.13;;;1.80;;
13797;SDS011;6970;51.340;3.240;2024-03-02T14:43:41;7.22;;;1.38;;
13797;SDS011;6970;51.340;3.240;2024-03-02T14:46:09;5.68;;;1.60;;
13797;SDS011;6970;51.340;3.240;2024-03-02T14:48:39;4.18;;;1.10;;
13797;SDS011;6970;51.340;3.240;2024-03-02T14:51:08;4.70;;;1.45;;
13797;SDS011;6970;51.340;3.240;2024-03-02T14:53:38;7.35;;;1.63;;
13797;SDS011;6970;51.340;3.240;2024-03-02T14:56:05;6.15;;;2.03;;
13797;SDS011;6970;51.340;3.240;2024-03-02T14:58:34;5.57;;;1.50;;
13797;SDS011;6970;51.340;3.240;2024-03-02T15:01:04;7.55;;;1.80;;
13797;SDS011;6970;51.340;3.240;2024-03-02T15:06:02;7.03;;;2.08;;
13797;SDS011;6970;51.340;3.240;2024-03-02T15:11:00;5.57;;;1.90;;
13797;SDS011;6970;51.340;3.240;2024-03-02T15:13:32;5.38;;;1.20;;
13797;SDS011;6970;51.340;3.240;2024-03-02T15:16:00;5.85;;;1.27;;
13797;SDS011;6970;51.340;3.240;2024-03-02T15:23:29;4.13;;;1.42;;
13797;SDS011;6970;51.340;3.240;2024-03-02T15:28:29;6.43;;;1.70;;
13797;SDS011;6970;51.340;3.240;2024-03-02T15:30:57;6.47;;;1.50;;
13797;SDS011;6970;51.340;3.240;2024-03-02T15:33:25;7.40;;;1.85;;
13797;SDS011;6970;51.340;3.240;2024-03-02T15:35:59;5.38;;;1.80;;
13797;SDS011;6970;51.340;3.240;2024-03-02T15:38:28;7.45;;;1.80;;
13797;SDS011;6970;51.340;3.240;2024-03-02T15:41:04;6.57;;;1.90;;
13797;SDS011;6970;51.340;3.240;2024-03-02T15:43:34;6.82;;;1.77;;
13797;SDS011;6970;51.340;3.240;2024-03-02T15:46:05;5.20;;;1.35;;
13797;SDS011;6970;51.340;3.240;2024-03-02T15:48:35;5.32;;;1.48;;
13797;SDS011;6970;51.340;3.240;2024-03-02T15:51:05;5.25;;;1.75;;
13797;SDS011;6970;51.340;3.240;2024-03-02T15:53:32;7.10;;;1.67;;
13797;SDS011;6970;51.340;3.240;2024-03-02T15:56:00;4.40;;;1.50;;
13797;SDS011;6970;51.340;3.240;2024-03-02T15:58:29;4.88;;;1.38;;
13797;SDS011;6970;51.340;3.240;2024-03-02T16:00:57;5.43;;;1.63;;
13797;SDS011;6970;51.340;3.240;2024-03-02T16:03:25;5.63;;;2.00;;
13797;SDS011;6970;51.340;3.240;2024-03-02T16:08:25;5.47;;;2.10;;
13797;SDS011;6970;51.340;3.240;2024-03-02T16:10:52;7.80;;;2.60;;
13797;SDS011;6970;51.340;3.240;2024-03-02T16:13:20;7.80;;;2.40;;
13797;SDS011;6970;51.340;3.240;2024-03-02T16:15:47;6.30;;;2.08;;
13797;SDS011;6970;51.340;3.240;2024-03-02T16:18:17;6.03;;;2.03;;
13797;SDS011;6970;51.340;3.240;2024-03-02T16:20:47;4.82;;;1.80;;
13797;SDS011;6970;51.340;3.240;2024-03-02T16:23:16;5.72;;;1.50;;
13797;SDS011;6970;51.340;3.240;2024-03-02T16:25:43;4.93;;;1.67;;
13797;SDS011;6970;51.340;3.240;2024-03-02T16:30:42;5.15;;;1.70;;
13797;SDS011;6970;51.340;3.240;2024-03-02T16:38:11;5.45;;;1.50;;
13797;SDS011;6970;51.340;3.240;2024-03-02T16:40:40;7.65;;;1.70;;
13797;SDS011;6970;51.340;3.240;2024-03-02T16:43:07;5.63;;;1.52;;
13797;SDS011;6970;51.340;3.240;2024-03-02T16:45:37;5.15;;;1.70;;
13797;SDS011;6970;51.340;3.240;2024-03-02T16:48:05;6.95;;;2.08;;
13797;SDS011;6970;51.340;3.240;2024-03-02T16:50:33;5.97;;;1.83;;
13797;SDS011;6970;51.340;3.240;2024-03-02T16:53:00;7.05;;;2.05;;
13797;SDS011;6970;51.340;3.240;2024-03-02T16:55:28;4.80;;;1.83;;
13797;SDS011;6970;51.340;3.240;2024-03-02T17:00:26;7.13;;;1.98;;
13797;SDS011;6970;51.340;3.240;2024-03-02T17:07:54;7.35;;;2.33;;
13797;SDS011;6970;51.340;3.240;2024-03-02T17:10:23;7.18;;;2.33;;
13797;SDS011;6970;51.340;3.240;2024-03-02T17:12:50;5.63;;;1.92;;
13797;SDS011;6970;51.340;3.240;2024-03-02T17:15:20;7.10;;;2.63;;
13797;SDS011;6970;51.340;3.240;2024-03-02T17:17:51;7.03;;;3.60;;
13797;SDS011;6970;51.340;3.240;2024-03-02T17:22:52;6.70;;;2.80;;
13797;SDS011;6970;51.340;3.240;2024-03-02T17:25:19;7.40;;;2.90;;
13797;SDS011;6970;51.340;3.240;2024-03-02T17:27:46;7.13;;;2.60;;
13797;SDS011;6970;51.340;3.240;2024-03-02T17:30:14;6.65;;;3.22;;
13797;SDS011;6970;51.340;3.240;2024-03-02T17:32:42;7.07;;;3.35;;
13797;SDS011;6970;51.340;3.240;2024-03-02T17:35:11;7.32;;;2.83;;
13797;SDS011;6970;51.340;3.240;2024-03-02T17:37:41;8.98;;;3.08;;
13797;SDS011;6970;51.340;3.240;2024-03-02T17:40:13;7.03;;;2.78;;
13797;SDS011;6970;51.340;3.240;2024-03-02T17:42:41;7.30;;;2.13;;
13797;SDS011;6970;51.340;3.240;2024-03-02T17:45:11;7.15;;;2.83;;
13797;SDS011;6970;51.340;3.240;2024-03-02T17:47:38;5.57;;;2.10;;
13797;SDS011;6970;51.340;3.240;2024-03-02T17:50:05;8.32;;;2.58;;
13797;SDS011;6970;51.340;3.240;2024-03-02T17:52:33;14.80;;;5.80;;
13797;SDS011;6970;51.340;3.240;2024-03-02T17:57:33;10.93;;;3.00;;
13797;SDS011;6970;51.340;3.240;2024-03-02T18:00:04;7.35;;;3.50;;
13797;SDS011;6970;51.340;3.240;2024-03-02T18:02:46;6.85;;;2.58;;
13797;SDS011;6970;51.340;3.240;2024-03-02T18:05:16;5.47;;;2.10;;
13797;SDS011;6970;51.340;3.240;2024-03-02T18:07:43;10.73;;;4.00;;